sensor_id;sensor_type;location;lat;lon;timestamp;temperature;humidity
32215;DHT22;18708;53.124;23.190;2023-02-11T00:01:53;1.50;99.90
32215;DHT22;18708;53.124;23.190;2023-02-11T00:04:19;1.50;99.90
32215;DHT22;18708;53.124;23.190;2023-02-11T00:06:44;1.50;99.90
32215;DHT22;18708;53.124;23.190;2023-02-11T00:09:10;1.60;99.90
32215;DHT22;18708;53.124;23.190;2023-02-11T00:11:36;1.50;99.90
32215;DHT22;18708;53.124;23.190;2023-02-11T00:14:03;1.60;99.90
32215;DHT22;18708;53.124;23.190;2023-02-11T00:16:31;1.60;99.90
32215;DHT22;18708;53.124;23.190;2023-02-11T00:19:01;1.60;99.90
32215;DHT22;18708;53.124;23.190;2023-02-11T00:21:27;1.60;99.90
32215;DHT22;18708;53.124;23.190;2023-02-11T00:23:53;1.60;99.90
32215;DHT22;18708;53.124;23.190;2023-02-11T00:26:24;1.60;99.90
32215;DHT22;18708;53.124;23.190;2023-02-11T00:28:51;1.60;99.90
32215;DHT22;18708;53.124;23.190;2023-02-11T00:31:18;1.60;99.90
32215;DHT22;18708;53.124;23.190;2023-02-11T00:33:44;1.60;99.90
32215;DHT22;18708;53.124;23.190;2023-02-11T00:36:16;1.60;99.90
32215;DHT22;18708;53.124;23.190;2023-02-11T00:38:45;1.50;99.90
32215;DHT22;18708;53.124;23.190;2023-02-11T00:41:12;1.50;99.90
32215;DHT22;18708;53.124;23.190;2023-02-11T00:43:39;1.50;99.90
32215;DHT22;18708;53.124;23.190;2023-02-11T00:46:05;1.50;99.90
32215;DHT22;18708;53.124;23.190;2023-02-11T00:48:31;1.40;99.90
32215;DHT22;18708;53.124;23.190;2023-02-11T00:50:57;1.40;99.90
32215;DHT22;18708;53.124;23.190;2023-02-11T00:53:23;1.40;99.90
32215;DHT22;18708;53.124;23.190;2023-02-11T00:55:50;1.40;99.90
32215;DHT22;18708;53.124;23.190;2023-02-11T00:58:16;1.30;99.90
32215;DHT22;18708;53.124;23.190;2023-02-11T01:00:42;1.30;99.90
32215;DHT22;18708;53.124;23.190;2023-02-11T01:03:08;1.30;99.90
32215;DHT22;18708;53.124;23.190;2023-02-11T01:05:33;1.20;99.90
32215;DHT22;18708;53.124;23.190;2023-02-11T01:07:59;1.20;99.90
32215;DHT22;18708;53.124;23.190;2023-02-11T01:10:25;1.20;99.90
32215;DHT22;18708;53.124;23.190;2023-02-11T01:12:50;1.20;99.90
32215;DHT22;18708;53.124;23.190;2023-02-11T01:15:18;1.20;99.90
32215;DHT22;18708;53.124;23.190;2023-02-11T01:17:44;1.10;99.90
32215;DHT22;18708;53.124;23.190;2023-02-11T01:20:19;1.10;99.90
32215;DHT22;18708;53.124;23.190;2023-02-11T01:22:44;1.10;99.90
32215;DHT22;18708;53.124;23.190;2023-02-11T01:25:10;1.10;99.90
32215;DHT22;18708;53.124;23.190;2023-02-11T01:27:36;1.10;99.90
32215;DHT22;18708;53.124;23.190;2023-02-11T01:30:03;1.10;99.90
32215;DHT22;18708;53.124;23.190;2023-02-11T01:32:29;1.10;99.90
32215;DHT22;18708;53.124;23.190;2023-02-11T01:34:55;1.10;99.90
32215;DHT22;18708;53.124;23.190;2023-02-11T01:37:20;1.10;99.90
32215;DHT22;18708;53.124;23.190;2023-02-11T01:39:46;1.10;99.90
32215;DHT22;18708;53.124;23.190;2023-02-11T01:42:16;1.10;99.90
32215;DHT22;18708;53.124;23.190;2023-02-11T01:44:42;1.10;99.90
32215;DHT22;18708;53.124;23.190;2023-02-11T01:47:08;1.10;99.90
32215;DHT22;18708;53.124;23.190;2023-02-11T01:49:39;1.10;99.90
32215;DHT22;18708;53.124;23.190;2023-02-11T01:54:55;1.10;99.90
32215;DHT22;18708;53.124;23.190;2023-02-11T01:57:44;1.10;99.90
32215;DHT22;18708;53.124;23.190;2023-02-11T02:00:26;1.20;99.90
32215;DHT22;18708;53.124;23.190;2023-02-11T02:03:12;1.10;99.90
32215;DHT22;18708;53.124;23.190;2023-02-11T02:05:52;1.10;99.90
32215;DHT22;18708;53.124;23.190;2023-02-11T02:08:37;1.10;99.90
32215;DHT22;18708;53.124;23.190;2023-02-11T02:11:04;1.20;99.90
32215;DHT22;18708;53.124;23.190;2023-02-11T02:13:32;1.20;99.90
32215;DHT22;18708;53.124;23.190;2023-02-11T02:16:03;1.20;99.90
32215;DHT22;18708;53.124;23.190;2023-02-11T02:27:18;1.30;99.90
32215;DHT22;18708;53.124;23.190;2023-02-11T02:40:57;1.40;99.90
32215;DHT22;18708;53.124;23.190;2023-02-11T02:43:26;1.40;99.90
32215;DHT22;18708;53.124;23.190;2023-02-11T02:45:54;1.40;99.90
32215;DHT22;18708;53.124;23.190;2023-02-11T02:48:38;1.40;99.90
32215;DHT22;18708;53.124;23.190;2023-02-11T02:51:32;1.40;99.90
32215;DHT22;18708;53.124;23.190;2023-02-11T02:56:29;1.50;99.90
32215;DHT22;18708;53.124;23.190;2023-02-11T03:02:32;1.50;99.90
32215;DHT22;18708;53.124;23.190;2023-02-11T03:04:55;1.50;99.90
32215;DHT22;18708;53.124;23.190;2023-02-11T03:07:42;1.60;99.90
32215;DHT22;18708;53.124;23.190;2023-02-11T03:10:42;1.60;99.90
32215;DHT22;18708;53.124;23.190;2023-02-11T03:13:08;1.60;99.90
32215;DHT22;18708;53.124;23.190;2023-02-11T03:15:39;1.60;99.90
32215;DHT22;18708;53.124;23.190;2023-02-11T03:18:10;1.60;99.90
32215;DHT22;18708;53.124;23.190;2023-02-11T03:20:40;1.60;99.90
32215;DHT22;18708;53.124;23.190;2023-02-11T03:23:18;1.60;99.90
32215;DHT22;18708;53.124;23.190;2023-02-11T03:26:10;1.70;99.90
32215;DHT22;18708;53.124;23.190;2023-02-11T03:28:56;1.70;99.90
32215;DHT22;18708;53.124;23.190;2023-02-11T03:31:29;1.80;99.90
32215;DHT22;18708;53.124;23.190;2023-02-11T03:34:14;1.80;99.90
32215;DHT22;18708;53.124;23.190;2023-02-11T03:36:42;1.80;99.90
32215;DHT22;18708;53.124;23.190;2023-02-11T03:39:13;1.80;99.90
32215;DHT22;18708;53.124;23.190;2023-02-11T03:41:41;1.80;99.90
32215;DHT22;18708;53.124;23.190;2023-02-11T03:44:08;1.80;99.90
32215;DHT22;18708;53.124;23.190;2023-02-11T03:46:38;1.80;99.90
32215;DHT22;18708;53.124;23.190;2023-02-11T03:49:10;1.90;99.90
32215;DHT22;18708;53.124;23.190;2023-02-11T03:51:37;1.80;99.90
32215;DHT22;18708;53.124;23.190;2023-02-11T03:54:08;1.80;99.90
32215;DHT22;18708;53.124;23.190;2023-02-11T03:56:40;1.90;99.90
32215;DHT22;18708;53.124;23.190;2023-02-11T03:59:08;1.90;99.90
32215;DHT22;18708;53.124;23.190;2023-02-11T04:01:33;1.90;99.90
32215;DHT22;18708;53.124;23.190;2023-02-11T04:03:59;1.90;99.90
32215;DHT22;18708;53.124;23.190;2023-02-11T04:06:24;2.00;99.90
32215;DHT22;18708;53.124;23.190;2023-02-11T04:08:52;1.90;99.90
32215;DHT22;18708;53.124;23.190;2023-02-11T04:11:18;2.00;99.90
32215;DHT22;18708;53.124;23.190;2023-02-11T04:13:43;2.00;99.90
32215;DHT22;18708;53.124;23.190;2023-02-11T04:16:09;2.00;99.90
32215;DHT22;18708;53.124;23.190;2023-02-11T04:18:35;2.00;99.90
32215;DHT22;18708;53.124;23.190;2023-02-11T04:21:00;2.00;99.90
32215;DHT22;18708;53.124;23.190;2023-02-11T04:23:26;1.90;99.90
32215;DHT22;18708;53.124;23.190;2023-02-11T04:25:51;2.00;99.90
32215;DHT22;18708;53.124;23.190;2023-02-11T04:28:17;2.00;99.90
32215;DHT22;18708;53.124;23.190;2023-02-11T04:30:43;2.00;99.90
32215;DHT22;18708;53.124;23.190;2023-02-11T04:33:08;2.00;99.90
32215;DHT22;18708;53.124;23.190;2023-02-11T04:35:34;2.00;99.90
32215;DHT22;18708;53.124;23.190;2023-02-11T04:37:59;2.00;99.90
32215;DHT22;18708;53.124;23.190;2023-02-11T04:40:25;1.90;99.90
32215;DHT22;18708;53.124;23.190;2023-02-11T04:42:51;2.00;99.90
32215;DHT22;18708;53.124;23.190;2023-02-11T04:45:17;2.00;99.90
32215;DHT22;18708;53.124;23.190;2023-02-11T04:47:42;2.10;99.90
32215;DHT22;18708;53.124;23.190;2023-02-11T04:50:08;2.10;99.90
32215;DHT22;18708;53.124;23.190;2023-02-11T04:52:34;2.10;99.90
32215;DHT22;18708;53.124;23.190;2023-02-11T04:54:59;2.10;99.90
32215;DHT22;18708;53.124;23.190;2023-02-11T04:57:25;2.10;99.90
32215;DHT22;18708;53.124;23.190;2023-02-11T04:59:50;2.10;99.90
32215;DHT22;18708;53.124;23.190;2023-02-11T05:02:16;2.10;99.90
32215;DHT22;18708;53.124;23.190;2023-02-11T05:04:42;2.10;99.90
32215;DHT22;18708;53.124;23.190;2023-02-11T05:07:07;2.10;99.90
32215;DHT22;18708;53.124;23.190;2023-02-11T05:09:33;2.10;99.90
32215;DHT22;18708;53.124;23.190;2023-02-11T05:12:01;2.00;99.90
32215;DHT22;18708;53.124;23.190;2023-02-11T05:14:26;2.10;99.90
32215;DHT22;18708;53.124;23.190;2023-02-11T05:16:52;2.00;99.90
32215;DHT22;18708;53.124;23.190;2023-02-11T05:19:20;2.10;99.90
32215;DHT22;18708;53.124;23.190;2023-02-11T05:21:45;2.00;99.90
32215;DHT22;18708;53.124;23.190;2023-02-11T05:24:11;2.00;99.90
32215;DHT22;18708;53.124;23.190;2023-02-11T05:26:36;1.90;99.90
32215;DHT22;18708;53.124;23.190;2023-02-11T05:29:02;2.00;99.90
32215;DHT22;18708;53.124;23.190;2023-02-11T05:31:30;2.00;99.90
32215;DHT22;18708;53.124;23.190;2023-02-11T05:33:57;2.00;99.90
32215;DHT22;18708;53.124;23.190;2023-02-11T05:36:22;2.00;99.90
32215;DHT22;18708;53.124;23.190;2023-02-11T05:38:48;2.00;99.90
32215;DHT22;18708;53.124;23.190;2023-02-11T05:41:15;2.00;99.90
32215;DHT22;18708;53.124;23.190;2023-02-11T05:43:40;2.00;99.90
32215;DHT22;18708;53.124;23.190;2023-02-11T05:46:06;2.10;99.90
32215;DHT22;18708;53.124;23.190;2023-02-11T05:48:32;2.00;99.90
32215;DHT22;18708;53.124;23.190;2023-02-11T05:50:58;2.00;99.90
32215;DHT22;18708;53.124;23.190;2023-02-11T05:53:23;2.00;99.90
32215;DHT22;18708;53.124;23.190;2023-02-11T05:55:49;2.00;99.90
32215;DHT22;18708;53.124;23.190;2023-02-11T05:58:15;2.00;99.90
32215;DHT22;18708;53.124;23.190;2023-02-11T06:00:40;2.00;99.90
32215;DHT22;18708;53.124;23.190;2023-02-11T06:03:08;2.00;99.90
32215;DHT22;18708;53.124;23.190;2023-02-11T06:05:34;2.00;99.90
32215;DHT22;18708;53.124;23.190;2023-02-11T06:07:59;2.00;99.90
32215;DHT22;18708;53.124;23.190;2023-02-11T06:10:26;2.00;99.90
32215;DHT22;18708;53.124;23.190;2023-02-11T06:12:51;2.00;99.90
32215;DHT22;18708;53.124;23.190;2023-02-11T06:15:17;1.90;99.90
32215;DHT22;18708;53.124;23.190;2023-02-11T06:17:43;2.00;99.90
32215;DHT22;18708;53.124;23.190;2023-02-11T06:20:09;2.00;99.90
32215;DHT22;18708;53.124;23.190;2023-02-11T06:22:35;2.00;99.90
32215;DHT22;18708;53.124;23.190;2023-02-11T06:25:00;2.00;99.90
32215;DHT22;18708;53.124;23.190;2023-02-11T06:27:26;2.00;99.90
32215;DHT22;18708;53.124;23.190;2023-02-11T06:29:52;2.10;99.90
32215;DHT22;18708;53.124;23.190;2023-02-11T06:32:18;2.00;99.90
32215;DHT22;18708;53.124;23.190;2023-02-11T06:34:44;2.10;99.90
32215;DHT22;18708;53.124;23.190;2023-02-11T06:37:09;2.00;99.90
32215;DHT22;18708;53.124;23.190;2023-02-11T06:39:36;2.10;99.90
32215;DHT22;18708;53.124;23.190;2023-02-11T06:42:01;2.10;99.90
32215;DHT22;18708;53.124;23.190;2023-02-11T06:44:27;2.10;99.90
32215;DHT22;18708;53.124;23.190;2023-02-11T06:46:53;2.10;99.90
32215;DHT22;18708;53.124;23.190;2023-02-11T06:49:18;2.10;99.90
32215;DHT22;18708;53.124;23.190;2023-02-11T06:51:44;2.10;99.90
32215;DHT22;18708;53.124;23.190;2023-02-11T06:54:10;2.10;99.90
32215;DHT22;18708;53.124;23.190;2023-02-11T06:56:38;2.10;99.90
32215;DHT22;18708;53.124;23.190;2023-02-11T06:59:04;2.10;99.90
32215;DHT22;18708;53.124;23.190;2023-02-11T07:01:30;2.10;99.90
32215;DHT22;18708;53.124;23.190;2023-02-11T07:03:56;2.10;99.90
32215;DHT22;18708;53.124;23.190;2023-02-11T07:06:23;2.20;99.90
32215;DHT22;18708;53.124;23.190;2023-02-11T07:08:51;2.10;99.90
32215;DHT22;18708;53.124;23.190;2023-02-11T07:11:23;2.10;99.90
32215;DHT22;18708;53.124;23.190;2023-02-11T07:13:50;2.10;99.90
32215;DHT22;18708;53.124;23.190;2023-02-11T07:16:17;2.10;99.90
32215;DHT22;18708;53.124;23.190;2023-02-11T07:18:44;2.00;99.90
32215;DHT22;18708;53.124;23.190;2023-02-11T07:21:12;2.00;99.90
32215;DHT22;18708;53.124;23.190;2023-02-11T07:23:38;1.90;99.90
32215;DHT22;18708;53.124;23.190;2023-02-11T07:26:07;1.90;99.90
32215;DHT22;18708;53.124;23.190;2023-02-11T07:28:33;1.90;99.90
32215;DHT22;18708;53.124;23.190;2023-02-11T07:31:12;1.80;99.90
32215;DHT22;18708;53.124;23.190;2023-02-11T07:33:38;1.80;99.90
32215;DHT22;18708;53.124;23.190;2023-02-11T07:36:05;1.70;99.90
32215;DHT22;18708;53.124;23.190;2023-02-11T07:38:32;1.70;99.90
32215;DHT22;18708;53.124;23.190;2023-02-11T07:41:03;1.60;99.90
32215;DHT22;18708;53.124;23.190;2023-02-11T07:43:30;1.60;99.90
32215;DHT22;18708;53.124;23.190;2023-02-11T07:45:56;1.60;99.90
32215;DHT22;18708;53.124;23.190;2023-02-11T07:48:22;1.70;99.90
32215;DHT22;18708;53.124;23.190;2023-02-11T07:50:49;1.60;99.90
32215;DHT22;18708;53.124;23.190;2023-02-11T07:53:15;1.60;99.90
32215;DHT22;18708;53.124;23.190;2023-02-11T07:55:44;1.60;99.90
32215;DHT22;18708;53.124;23.190;2023-02-11T07:58:09;1.70;99.90
32215;DHT22;18708;53.124;23.190;2023-02-11T08:00:35;1.60;99.90
32215;DHT22;18708;53.124;23.190;2023-02-11T08:03:00;1.60;99.90
32215;DHT22;18708;53.124;23.190;2023-02-11T08:05:26;1.60;99.90
32215;DHT22;18708;53.124;23.190;2023-02-11T08:07:52;1.60;99.90
32215;DHT22;18708;53.124;23.190;2023-02-11T08:10:19;1.60;99.90
32215;DHT22;18708;53.124;23.190;2023-02-11T08:12:45;1.70;99.90
32215;DHT22;18708;53.124;23.190;2023-02-11T08:15:11;1.50;99.90
32215;DHT22;18708;53.124;23.190;2023-02-11T08:17:36;1.50;99.90
32215;DHT22;18708;53.124;23.190;2023-02-11T08:20:04;1.50;99.90
32215;DHT22;18708;53.124;23.190;2023-02-11T08:22:33;1.60;99.90
32215;DHT22;18708;53.124;23.190;2023-02-11T08:24:59;1.50;99.90
32215;DHT22;18708;53.124;23.190;2023-02-11T08:27:25;1.50;99.90
32215;DHT22;18708;53.124;23.190;2023-02-11T08:29:54;1.50;99.90
32215;DHT22;18708;53.124;23.190;2023-02-11T08:32:21;1.60;99.90
32215;DHT22;18708;53.124;23.190;2023-02-11T08:34:50;1.50;99.90
32215;DHT22;18708;53.124;23.190;2023-02-11T08:37:17;1.50;99.90
32215;DHT22;18708;53.124;23.190;2023-02-11T08:39:42;1.50;99.90
32215;DHT22;18708;53.124;23.190;2023-02-11T08:42:08;1.50;99.90
32215;DHT22;18708;53.124;23.190;2023-02-11T08:44:34;1.50;99.90
32215;DHT22;18708;53.124;23.190;2023-02-11T08:47:00;1.60;99.90
32215;DHT22;18708;53.124;23.190;2023-02-11T08:49:25;1.50;99.90
32215;DHT22;18708;53.124;23.190;2023-02-11T08:51:51;1.60;99.90
32215;DHT22;18708;53.124;23.190;2023-02-11T08:54:16;1.60;99.90
32215;DHT22;18708;53.124;23.190;2023-02-11T08:56:42;1.60;99.90
32215;DHT22;18708;53.124;23.190;2023-02-11T08:59:12;1.60;99.90
32215;DHT22;18708;53.124;23.190;2023-02-11T09:01:40;1.70;99.90
32215;DHT22;18708;53.124;23.190;2023-02-11T09:04:06;1.70;99.90
32215;DHT22;18708;53.124;23.190;2023-02-11T09:06:32;1.60;99.90
32215;DHT22;18708;53.124;23.190;2023-02-11T09:08:57;1.60;99.90
32215;DHT22;18708;53.124;23.190;2023-02-11T09:11:29;1.70;99.90
32215;DHT22;18708;53.124;23.190;2023-02-11T09:13:55;1.70;99.90
32215;DHT22;18708;53.124;23.190;2023-02-11T09:16:23;1.80;99.90
32215;DHT22;18708;53.124;23.190;2023-02-11T09:18:49;1.70;99.90
32215;DHT22;18708;53.124;23.190;2023-02-11T09:21:16;1.70;99.90
32215;DHT22;18708;53.124;23.190;2023-02-11T09:23:42;1.70;99.90
32215;DHT22;18708;53.124;23.190;2023-02-11T09:26:22;1.80;99.90
32215;DHT22;18708;53.124;23.190;2023-02-11T09:28:48;1.70;99.90
32215;DHT22;18708;53.124;23.190;2023-02-11T09:31:16;1.80;99.90
32215;DHT22;18708;53.124;23.190;2023-02-11T09:33:43;1.80;99.90
32215;DHT22;18708;53.124;23.190;2023-02-11T09:36:18;1.80;99.90
32215;DHT22;18708;53.124;23.190;2023-02-11T09:38:45;1.80;99.90
32215;DHT22;18708;53.124;23.190;2023-02-11T09:44:00;1.80;99.90
32215;DHT22;18708;53.124;23.190;2023-02-11T09:46:30;1.80;99.90
32215;DHT22;18708;53.124;23.190;2023-02-11T09:48:57;1.80;99.90
32215;DHT22;18708;53.124;23.190;2023-02-11T09:51:40;1.90;99.90
32215;DHT22;18708;53.124;23.190;2023-02-11T09:54:18;1.90;99.90
32215;DHT22;18708;53.124;23.190;2023-02-11T09:56:46;1.90;99.90
32215;DHT22;18708;53.124;23.190;2023-02-11T09:59:15;1.90;99.90
32215;DHT22;18708;53.124;23.190;2023-02-11T10:02:01;1.90;99.90
32215;DHT22;18708;53.124;23.190;2023-02-11T10:04:47;1.90;99.90
32215;DHT22;18708;53.124;23.190;2023-02-11T10:07:24;1.90;99.90
32215;DHT22;18708;53.124;23.190;2023-02-11T10:10:12;1.90;99.90
32215;DHT22;18708;53.124;23.190;2023-02-11T10:12:59;2.00;99.90
32215;DHT22;18708;53.124;23.190;2023-02-11T10:23:20;2.00;99.90
32215;DHT22;18708;53.124;23.190;2023-02-11T10:25:50;2.00;99.90
32215;DHT22;18708;53.124;23.190;2023-02-11T10:28:35;2.00;99.90
32215;DHT22;18708;53.124;23.190;2023-02-11T10:31:23;1.90;99.90
32215;DHT22;18708;53.124;23.190;2023-02-11T10:33:57;2.00;99.90
32215;DHT22;18708;53.124;23.190;2023-02-11T10:36:32;1.90;99.90
32215;DHT22;18708;53.124;23.190;2023-02-11T10:41:41;2.00;99.90
32215;DHT22;18708;53.124;23.190;2023-02-11T10:44:26;2.00;99.90
32215;DHT22;18708;53.124;23.190;2023-02-11T10:46:53;2.00;99.90
32215;DHT22;18708;53.124;23.190;2023-02-11T10:57:30;2.00;99.90
32215;DHT22;18708;53.124;23.190;2023-02-11T10:59:59;2.00;99.90
32215;DHT22;18708;53.124;23.190;2023-02-11T11:02:31;2.00;99.90
32215;DHT22;18708;53.124;23.190;2023-02-11T11:05:02;2.10;99.90
32215;DHT22;18708;53.124;23.190;2023-02-11T11:07:32;2.10;99.90
32215;DHT22;18708;53.124;23.190;2023-02-11T11:10:07;2.20;99.90
32215;DHT22;18708;53.124;23.190;2023-02-11T11:12:49;2.10;99.90
32215;DHT22;18708;53.124;23.190;2023-02-11T11:15:21;2.10;99.90
32215;DHT22;18708;53.124;23.190;2023-02-11T11:18:09;2.20;99.90
32215;DHT22;18708;53.124;23.190;2023-02-11T11:20:35;2.20;99.90
32215;DHT22;18708;53.124;23.190;2023-02-11T11:23:17;2.20;99.90
32215;DHT22;18708;53.124;23.190;2023-02-11T11:25:45;2.20;99.90
32215;DHT22;18708;53.124;23.190;2023-02-11T11:28:25;2.30;99.90
32215;DHT22;18708;53.124;23.190;2023-02-11T11:30:54;2.30;99.90
32215;DHT22;18708;53.124;23.190;2023-02-11T11:33:25;2.30;99.90
32215;DHT22;18708;53.124;23.190;2023-02-11T11:36:01;2.30;99.90
32215;DHT22;18708;53.124;23.190;2023-02-11T11:38:29;2.30;99.90
32215;DHT22;18708;53.124;23.190;2023-02-11T11:41:19;2.30;99.90
32215;DHT22;18708;53.124;23.190;2023-02-11T11:47:06;2.30;99.90
32215;DHT22;18708;53.124;23.190;2023-02-11T11:55:10;2.30;99.90
32215;DHT22;18708;53.124;23.190;2023-02-11T11:57:38;2.30;99.90
32215;DHT22;18708;53.124;23.190;2023-02-11T12:00:04;2.30;99.90
32215;DHT22;18708;53.124;23.190;2023-02-11T12:02:59;2.30;99.90
32215;DHT22;18708;53.124;23.190;2023-02-11T12:08:18;2.30;99.90
32215;DHT22;18708;53.124;23.190;2023-02-11T12:11:09;2.30;99.90
32215;DHT22;18708;53.124;23.190;2023-02-11T12:13:42;2.30;99.90
32215;DHT22;18708;53.124;23.190;2023-02-11T12:17:10;2.40;99.90
32215;DHT22;18708;53.124;23.190;2023-02-11T12:19:56;2.40;99.90
32215;DHT22;18708;53.124;23.190;2023-02-11T12:26:21;2.40;99.90
32215;DHT22;18708;53.124;23.190;2023-02-11T12:37:16;2.40;99.90
32215;DHT22;18708;53.124;23.190;2023-02-11T12:39:50;2.50;99.90
32215;DHT22;18708;53.124;23.190;2023-02-11T12:42:44;2.50;99.90
32215;DHT22;18708;53.124;23.190;2023-02-11T12:56:59;2.70;99.90
32215;DHT22;18708;53.124;23.190;2023-02-11T13:01:59;2.80;99.90
32215;DHT22;18708;53.124;23.190;2023-02-11T13:04:36;2.80;99.90
32215;DHT22;18708;53.124;23.190;2023-02-11T13:07:10;2.80;99.90
32215;DHT22;18708;53.124;23.190;2023-02-11T13:09:42;2.80;99.90
32215;DHT22;18708;53.124;23.190;2023-02-11T13:12:12;2.80;99.90
32215;DHT22;18708;53.124;23.190;2023-02-11T13:14:59;2.80;99.90
32215;DHT22;18708;53.124;23.190;2023-02-11T13:17:38;2.80;99.90
32215;DHT22;18708;53.124;23.190;2023-02-11T13:28:31;3.10;99.90
32215;DHT22;18708;53.124;23.190;2023-02-11T13:31:00;3.00;99.90
32215;DHT22;18708;53.124;23.190;2023-02-11T13:33:32;3.00;99.90
32215;DHT22;18708;53.124;23.190;2023-02-11T13:38:26;3.00;99.90
32215;DHT22;18708;53.124;23.190;2023-02-11T13:41:00;3.00;99.90
32215;DHT22;18708;53.124;23.190;2023-02-11T13:43:27;3.00;99.90
32215;DHT22;18708;53.124;23.190;2023-02-11T13:45:59;2.90;99.90
32215;DHT22;18708;53.124;23.190;2023-02-11T13:48:32;3.00;99.90
32215;DHT22;18708;53.124;23.190;2023-02-11T13:51:03;3.10;99.90
32215;DHT22;18708;53.124;23.190;2023-02-11T13:53:30;3.10;99.90
32215;DHT22;18708;53.124;23.190;2023-02-11T13:56:11;3.00;99.90
32215;DHT22;18708;53.124;23.190;2023-02-11T13:58:49;3.10;99.90
32215;DHT22;18708;53.124;23.190;2023-02-11T14:04:23;3.10;99.90
32215;DHT22;18708;53.124;23.190;2023-02-11T14:07:32;3.20;99.90
32215;DHT22;18708;53.124;23.190;2023-02-11T14:13:29;3.30;99.90
32215;DHT22;18708;53.124;23.190;2023-02-11T14:16:23;3.20;99.90
32215;DHT22;18708;53.124;23.190;2023-02-11T14:23:52;3.30;99.90
32215;DHT22;18708;53.124;23.190;2023-02-11T14:39:52;3.50;99.90
32215;DHT22;18708;53.124;23.190;2023-02-11T14:42:23;3.50;99.90
32215;DHT22;18708;53.124;23.190;2023-02-11T14:44:53;3.50;99.90
32215;DHT22;18708;53.124;23.190;2023-02-11T14:47:28;3.50;99.90
32215;DHT22;18708;53.124;23.190;2023-02-11T14:49:55;3.50;99.90
32215;DHT22;18708;53.124;23.190;2023-02-11T14:52:26;3.50;99.90
32215;DHT22;18708;53.124;23.190;2023-02-11T14:55:24;3.60;99.90
32215;DHT22;18708;53.124;23.190;2023-02-11T14:57:44;3.60;99.90
32215;DHT22;18708;53.124;23.190;2023-02-11T15:00:18;3.60;99.90
32215;DHT22;18708;53.124;23.190;2023-02-11T15:02:44;3.70;99.90
32215;DHT22;18708;53.124;23.190;2023-02-11T15:05:24;3.70;99.90
32215;DHT22;18708;53.124;23.190;2023-02-11T15:08:01;3.70;99.90
32215;DHT22;18708;53.124;23.190;2023-02-11T15:10:29;3.70;99.90
32215;DHT22;18708;53.124;23.190;2023-02-11T15:12:55;3.70;99.90
32215;DHT22;18708;53.124;23.190;2023-02-11T15:15:22;3.80;99.90
32215;DHT22;18708;53.124;23.190;2023-02-11T15:17:47;3.80;99.90
32215;DHT22;18708;53.124;23.190;2023-02-11T15:20:27;3.70;99.90
32215;DHT22;18708;53.124;23.190;2023-02-11T15:23:18;3.80;99.90
32215;DHT22;18708;53.124;23.190;2023-02-11T15:25:45;3.70;99.90
32215;DHT22;18708;53.124;23.190;2023-02-11T15:28:23;3.80;99.90
32215;DHT22;18708;53.124;23.190;2023-02-11T15:31:11;4.00;99.90
32215;DHT22;18708;53.124;23.190;2023-02-11T15:33:38;3.80;99.90
32215;DHT22;18708;53.124;23.190;2023-02-11T15:36:04;3.80;99.90
32215;DHT22;18708;53.124;23.190;2023-02-11T15:38:30;3.90;99.90
32215;DHT22;18708;53.124;23.190;2023-02-11T15:41:00;3.90;99.90
32215;DHT22;18708;53.124;23.190;2023-02-11T15:43:44;3.90;99.90
32215;DHT22;18708;53.124;23.190;2023-02-11T15:46:16;3.90;99.90
32215;DHT22;18708;53.124;23.190;2023-02-11T15:48:46;4.00;99.90
32215;DHT22;18708;53.124;23.190;2023-02-11T15:51:31;4.00;99.90
32215;DHT22;18708;53.124;23.190;2023-02-11T15:54:16;4.10;99.90
32215;DHT22;18708;53.124;23.190;2023-02-11T15:56:43;4.10;99.90
32215;DHT22;18708;53.124;23.190;2023-02-11T15:59:10;4.10;99.90
32215;DHT22;18708;53.124;23.190;2023-02-11T16:01:40;4.00;99.90
32215;DHT22;18708;53.124;23.190;2023-02-11T16:04:22;4.10;99.90
32215;DHT22;18708;53.124;23.190;2023-02-11T16:06:49;4.10;99.90
32215;DHT22;18708;53.124;23.190;2023-02-11T16:17:06;4.20;99.90
32215;DHT22;18708;53.124;23.190;2023-02-11T16:19:34;4.30;99.90
32215;DHT22;18708;53.124;23.190;2023-02-11T16:22:09;4.30;99.90
32215;DHT22;18708;53.124;23.190;2023-02-11T16:24:36;4.20;99.90
32215;DHT22;18708;53.124;23.190;2023-02-11T16:27:07;4.20;99.90
32215;DHT22;18708;53.124;23.190;2023-02-11T16:29:45;4.20;99.90
32215;DHT22;18708;53.124;23.190;2023-02-11T16:32:23;4.30;99.90
32215;DHT22;18708;53.124;23.190;2023-02-11T16:34:49;4.30;99.90
32215;DHT22;18708;53.124;23.190;2023-02-11T16:37:15;4.30;99.90
32215;DHT22;18708;53.124;23.190;2023-02-11T16:39:41;4.30;99.90
32215;DHT22;18708;53.124;23.190;2023-02-11T16:42:07;4.30;99.90
32215;DHT22;18708;53.124;23.190;2023-02-11T16:44:34;4.30;99.90
32215;DHT22;18708;53.124;23.190;2023-02-11T16:47:01;4.40;99.90
32215;DHT22;18708;53.124;23.190;2023-02-11T16:49:36;4.40;99.90
32215;DHT22;18708;53.124;23.190;2023-02-11T16:52:11;4.40;99.90
32215;DHT22;18708;53.124;23.190;2023-02-11T16:54:37;4.50;99.90
32215;DHT22;18708;53.124;23.190;2023-02-11T16:57:12;4.40;99.90
32215;DHT22;18708;53.124;23.190;2023-02-11T16:59:38;4.40;99.90
32215;DHT22;18708;53.124;23.190;2023-02-11T17:02:07;4.40;99.90
32215;DHT22;18708;53.124;23.190;2023-02-11T17:04:35;4.50;99.90
32215;DHT22;18708;53.124;23.190;2023-02-11T17:07:01;4.50;99.90
32215;DHT22;18708;53.124;23.190;2023-02-11T17:09:27;4.50;99.90
32215;DHT22;18708;53.124;23.190;2023-02-11T17:11:53;4.50;99.90
32215;DHT22;18708;53.124;23.190;2023-02-11T17:14:19;4.50;99.90
32215;DHT22;18708;53.124;23.190;2023-02-11T17:16:46;4.50;99.90
32215;DHT22;18708;53.124;23.190;2023-02-11T17:19:14;4.50;99.90
32215;DHT22;18708;53.124;23.190;2023-02-11T17:21:50;4.50;99.90
32215;DHT22;18708;53.124;23.190;2023-02-11T17:24:17;4.60;99.90
32215;DHT22;18708;53.124;23.190;2023-02-11T17:26:44;4.60;99.90
32215;DHT22;18708;53.124;23.190;2023-02-11T17:29:13;4.60;99.90
32215;DHT22;18708;53.124;23.190;2023-02-11T17:31:39;4.70;99.90
32215;DHT22;18708;53.124;23.190;2023-02-11T17:34:05;4.70;99.90
32215;DHT22;18708;53.124;23.190;2023-02-11T17:36:31;4.70;99.90
32215;DHT22;18708;53.124;23.190;2023-02-11T17:38:58;4.70;99.90
32215;DHT22;18708;53.124;23.190;2023-02-11T17:41:25;4.60;99.90
32215;DHT22;18708;53.124;23.190;2023-02-11T17:43:51;4.70;99.90
32215;DHT22;18708;53.124;23.190;2023-02-11T17:46:17;4.70;99.90
32215;DHT22;18708;53.124;23.190;2023-02-11T17:48:43;4.70;99.90
32215;DHT22;18708;53.124;23.190;2023-02-11T17:53:47;4.80;99.90
32215;DHT22;18708;53.124;23.190;2023-02-11T17:56:12;4.80;99.90
32215;DHT22;18708;53.124;23.190;2023-02-11T17:58:38;4.80;99.90
32215;DHT22;18708;53.124;23.190;2023-02-11T18:01:06;4.80;99.90
32215;DHT22;18708;53.124;23.190;2023-02-11T18:03:31;4.80;99.90